Las Vegas, Nevada
Traffic Map
Current Weather Conditions
Las Vegas, Nevada
Few Clouds
Few Clouds
98°
Feels Like: 98°
Wind Chill: 98° Ceiling: Unl
Heat Index: 98° Visibility: 10mi
Dew Point: 30° Wind: 15mph
Humidity: 9% Direction: 240° (WSW)
Pressure: 29.68in Gusts: 25mph
Raw Report DataKLAS 032256Z 24013G22KT 10SM FEW120 FEW220 37/M01 A2968 RMK AO2 SLP019 T03671011
Traffic Incident Summary
Active as of:
Severity:
Category:
InformationThere was an issue retrieving the traffic information for this location. Please try a different location or try again shortly.
Advertisements
Track Severe Weather on mobile